Time;durP1;ratioP1;P1;durP2;ratioP2;P2;SDS_P1;SDS_P2;PMS_P1;PMS_P2;Temp;Humidity;BMP_temperature;BMP_pressure;BME280_temperature;BME280_humidity;BME280_pressure;Samples;Min_cycle;Max_cycle;Signal;HPM_P1;HPM_P2
2021/01/10 00:00:19;;;;;;;31.47;21.47;;;;;;;0.50;85.12;100449.82;1786942;79;25052;-68
2021/01/10 00:02:48;;;;;;;32.33;21.30;;;;;;;0.52;85.18;100453.22;1786535;80;25055;-67
2021/01/10 00:05:23;;;;;;;31.33;20.87;;;;;;;0.49;85.17;100455.91;1786804;80;25265;-68
2021/01/10 00:07:50;;;;;;;30.97;21.47;;;;;;;0.52;85.24;100451.92;1786598;79;25316;-68
2021/01/10 00:10:17;;;;;;;31.73;22.17;;;;;;;0.53;85.25;100456.23;1786957;80;25145;-67
2021/01/10 00:12:44;;;;;;;34.47;22.50;;;;;;;0.53;85.24;100457.52;1756531;80;25665;-67
2021/01/10 00:15:14;;;;;;;30.83;19.97;;;;;;;0.54;85.35;100455.35;1786960;80;25288;-69
2021/01/10 00:17:41;;;;;;;29.73;19.10;;;;;;;0.53;85.35;100462.24;1786804;79;25182;-69
2021/01/10 00:20:09;;;;;;;27.20;18.73;;;;;;;0.55;85.41;100459.20;1786894;80;25064;-68
2021/01/10 00:22:36;;;;;;;28.87;18.33;;;;;;;0.60;85.42;100458.23;1786848;80;25190;-68
2021/01/10 00:25:05;;;;;;;30.13;18.80;;;;;;;0.64;85.43;100456.84;1786911;80;25276;-67
2021/01/10 00:27:32;;;;;;;24.40;17.77;;;;;;;0.70;85.41;100459.30;1786743;80;25274;-68
2021/01/10 00:29:59;;;;;;;28.70;18.80;;;;;;;0.73;85.36;100458.35;1786854;79;25265;-68
2021/01/10 00:32:26;;;;;;;27.13;19.10;;;;;;;0.73;85.26;100459.65;1786897;80;25205;-68
2021/01/10 00:34:52;;;;;;;26.10;17.17;;;;;;;0.77;85.25;100456.08;1786790;79;25767;-69
2021/01/10 00:37:21;;;;;;;25.67;17.97;;;;;;;0.82;85.00;100455.98;1786787;79;25198;-69
2021/01/10 00:39:50;;;;;;;26.60;18.23;;;;;;;0.83;84.88;100457.69;1786775;79;25618;-69
2021/01/10 00:42:17;;;;;;;32.70;21.17;;;;;;;0.80;84.96;100457.31;1786808;80;25201;-66
2021/01/10 00:44:45;;;;;;;37.40;22.17;;;;;;;0.78;85.01;100451.78;1786760;80;25537;-66
2021/01/10 00:47:13;;;;;;;29.93;19.53;;;;;;;0.79;85.14;100456.92;1786892;79;25118;-67
2021/01/10 00:49:40;;;;;;;32.77;20.07;;;;;;;0.79;85.16;100457.34;1786767;79;25051;-68
2021/01/10 00:52:07;;;;;;;31.43;19.63;;;;;;;0.77;85.23;100456.53;1786751;79;25716;-67
2021/01/10 00:54:33;;;;;;;31.30;20.07;;;;;;;0.78;85.26;100456.95;1786952;79;25152;-68
2021/01/10 00:57:03;;;;;;;29.83;20.07;;;;;;;0.81;85.21;100465.95;1786735;80;25079;-68
2021/01/10 00:59:30;;;;;;;30.60;20.90;;;;;;;0.82;85.20;100464.63;1786686;79;25724;-66
2021/01/10 01:01:58;;;;;;;30.57;21.07;;;;;;;0.82;85.21;100468.93;1756356;80;25047;-67
2021/01/10 01:04:25;;;;;;;28.87;19.07;;;;;;;0.86;85.26;100457.63;1786898;80;25277;-67
2021/01/10 01:06:52;;;;;;;26.23;17.77;;;;;;;0.89;85.30;100466.17;1786800;80;25683;-68
2021/01/10 01:09:19;;;;;;;24.03;16.83;;;;;;;0.96;85.02;100468.16;1786756;79;25618;-68
2021/01/10 01:11:45;;;;;;;23.27;16.17;;;;;;;0.92;84.89;100468.69;1786861;80;25064;-68
2021/01/10 01:14:12;;;;;;;23.70;16.77;;;;;;;0.91;84.84;100470.86;1786793;80;25217;-68
2021/01/10 01:16:41;;;;;;;24.93;16.80;;;;;;;0.94;84.90;100467.36;1786821;79;25107;-68
2021/01/10 01:19:08;;;;;;;26.73;18.07;;;;;;;0.95;84.96;100463.02;1786796;79;25353;-69
2021/01/10 01:21:35;;;;;;;28.27;18.90;;;;;;;0.97;85.08;100468.55;1786788;79;25269;-67
2021/01/10 01:24:02;;;;;;;26.20;16.63;;;;;;;0.97;85.08;100473.73;1786918;79;25293;-68
2021/01/10 01:26:28;;;;;;;25.13;17.00;;;;;;;0.96;85.20;100469.91;1786790;80;25197;-68
2021/01/10 01:28:55;;;;;;;26.17;17.03;;;;;;;0.95;85.34;100478.11;1786878;80;25108;-67
2021/01/10 01:31:24;;;;;;;24.53;17.17;;;;;;;0.93;85.39;100472.12;1786789;80;25308;-67
2021/01/10 01:33:51;;;;;;;25.73;17.70;;;;;;;0.94;85.47;100479.02;1786826;80;25364;-68
2021/01/10 01:36:27;;;;;;;24.27;16.10;;;;;;;0.96;85.50;100475.94;1786863;79;25626;-68
2021/01/10 01:38:56;;;;;;;25.07;16.30;;;;;;;1.00;85.57;100480.14;1786811;79;25315;-69
2021/01/10 01:41:24;;;;;;;23.87;16.83;;;;;;;0.99;85.61;100473.27;1786302;80;25779;-68
2021/01/10 01:43:51;;;;;;;24.53;16.33;;;;;;;1.00;85.65;100475.41;1786623;79;25327;-68
2021/01/10 01:46:28;;;;;;;24.10;17.03;;;;;;;1.04;85.85;100477.90;1786728;79;25068;-68
2021/01/10 01:48:57;;;;;;;22.93;16.73;;;;;;;1.08;85.84;100478.22;1786897;80;25324;-67
2021/01/10 01:51:25;;;;;;;27.20;18.30;;;;;;;1.03;85.64;100469.70;1786866;78;25770;-68
2021/01/10 01:53:52;;;;;;;25.83;17.70;;;;;;;1.00;85.56;100476.25;1786775;80;25273;-68
2021/01/10 01:56:19;;;;;;;23.90;17.03;;;;;;;0.96;85.59;100475.09;1786727;79;25135;-67
2021/01/10 01:59:05;;;;;;;25.37;17.90;;;;;;;0.91;85.73;100471.31;1786790;80;25126;-67
2021/01/10 02:01:37;;;;;;;24.77;17.73;;;;;;;0.86;86.00;100477.89;1758969;80;25107;-67
2021/01/10 02:04:53;;;;;;;27.70;19.43;;;;;;;0.74;86.06;100476.44;1786761;79;25573;-68
2021/01/10 02:07:58;;;;;;;26.77;18.20;;;;;;;0.76;86.15;100475.56;1818322;78;26901;-67
2021/01/10 02:10:30;;;;;;;30.33;19.00;;;;;;;0.68;86.26;100479.17;1789490;80;25261;-68
2021/01/10 02:12:59;;;;;;;27.03;18.77;;;;;;;0.63;86.57;100465.48;1789522;80;25301;-67
2021/01/10 02:15:30;;;;;;;26.57;18.53;;;;;;;0.66;86.77;100480.95;1789432;80;25306;-67
2021/01/10 02:17:56;;;;;;;27.97;18.77;;;;;;;0.67;86.94;100476.61;1789461;80;25294;-67
2021/01/10 02:20:29;;;;;;;27.70;18.73;;;;;;;0.68;87.03;100475.28;1789408;80;25318;-67
2021/01/10 02:23:20;;;;;;;27.67;18.97;;;;;;;0.71;87.05;100479.10;1789403;79;25269;-67
2021/01/10 02:25:48;;;;;;;28.63;20.47;;;;;;;0.71;86.96;100481.69;1789502;80;25126;-67
2021/01/10 02:28:21;;;;;;;27.60;19.63;;;;;;;0.73;87.12;100485.55;1789334;79;25336;-67
2021/01/10 02:30:48;;;;;;;29.20;19.23;;;;;;;0.74;87.08;100485.51;1789458;79;25256;-67
2021/01/10 02:33:26;;;;;;;26.13;18.67;;;;;;;0.79;87.17;100486.70;1789382;80;25617;-67
2021/01/10 02:35:53;;;;;;;27.87;19.40;;;;;;;0.83;87.15;100481.84;1789497;80;25348;-67
2021/01/10 02:38:40;;;;;;;27.33;18.67;;;;;;;0.89;87.17;100483.00;1789528;79;25727;-67
2021/01/10 02:41:51;;;;;;;28.70;17.80;;;;;;;0.96;87.18;100480.27;1789213;80;25082;-68
2021/01/10 02:44:34;;;;;;;26.63;17.83;;;;;;;1.01;87.09;100477.97;1678673;84;25171;-67
2021/01/10 02:47:01;;;;;;;27.57;18.43;;;;;;;1.09;86.97;100473.91;1678617;84;25241;-67
2021/01/10 02:49:28;;;;;;;27.90;18.37;;;;;;;1.08;86.83;100467.84;1678604;84;25624;-68
2021/01/10 02:51:55;;;;;;;32.27;20.50;;;;;;;1.11;86.72;100477.30;1624699;87;25201;-67
2021/01/10 02:54:21;;;;;;;29.73;17.93;;;;;;;1.09;86.46;100472.61;1678445;84;25715;-67
2021/01/10 02:57:15;;;;;;;27.37;17.43;;;;;;;1.05;86.42;100473.10;1678551;84;25240;-67
2021/01/10 02:59:43;;;;;;;26.73;17.07;;;;;;;1.06;86.49;100468.34;1678607;84;25265;-67
2021/01/10 03:02:11;;;;;;;27.23;16.83;;;;;;;1.07;86.57;100475.23;1651125;86;25282;-68
2021/01/10 03:04:38;;;;;;;25.23;16.57;;;;;;;1.00;86.75;100480.14;1651006;85;25291;-67
2021/01/10 03:07:06;;;;;;;26.47;16.83;;;;;;;0.96;86.99;100474.64;1650894;86;25376;-67
2021/01/10 03:09:33;;;;;;;29.87;18.47;;;;;;;0.95;87.13;100470.79;1657108;86;25238;-67
2021/01/10 03:12:15;;;;;;;27.97;17.93;;;;;;;0.89;87.26;100475.23;1656438;85;25295;-67
2021/01/10 03:14:44;;;;;;;27.27;17.13;;;;;;;0.93;87.39;100469.53;1700272;84;25592;-68
2021/01/10 03:17:31;;;;;;;27.77;17.20;;;;;;;0.89;87.42;100469.21;1700028;84;25237;-67
2021/01/10 03:19:58;;;;;;;29.83;17.13;;;;;;;0.89;87.72;100479.12;1699812;84;25331;-67
2021/01/10 03:22:27;;;;;;;27.40;17.43;;;;;;;0.86;87.73;100467.98;1699670;84;25691;-67
2021/01/10 03:24:55;;;;;;;25.27;16.23;;;;;;;0.88;87.93;100475.27;1699764;84;25311;-67
2021/01/10 03:27:22;;;;;;;26.17;14.90;;;;;;;0.87;88.05;100469.25;1699767;84;25192;-67
2021/01/10 03:29:48;;;;;;;22.17;14.43;;;;;;;0.82;88.07;100471.52;1677439;84;25283;-67
2021/01/10 03:32:15;;;;;;;25.63;15.13;;;;;;;0.79;88.18;100471.16;1699601;84;25283;-68
2021/01/10 03:34:42;;;;;;;21.33;13.70;;;;;;;0.76;88.30;100466.05;1699678;84;25208;-67
2021/01/10 03:37:09;;;;;;;21.37;13.23;;;;;;;0.75;88.52;100466.93;1699721;84;25169;-67
2021/01/10 03:39:36;;;;;;;23.57;13.60;;;;;;;0.68;88.42;100467.52;1699760;84;25299;-68
2021/01/10 03:42:05;;;;;;;19.40;13.30;;;;;;;0.69;88.46;100470.52;1699648;83;25480;-68
2021/01/10 03:44:32;;;;;;;19.23;12.13;;;;;;;0.71;88.45;100471.33;1702780;83;25374;-67
2021/01/10 03:46:58;;;;;;;17.97;12.13;;;;;;;0.70;88.33;100469.65;1702772;83;25339;-68
2021/01/10 03:49:25;;;;;;;19.37;12.47;;;;;;;0.70;88.45;100478.71;1702714;83;25292;-68
2021/01/10 03:51:52;;;;;;;17.67;11.30;;;;;;;0.72;88.50;100475.64;1702626;83;25063;-68
2021/01/10 03:54:19;;;;;;;15.47;10.00;;;;;;;0.72;88.43;100475.64;1702733;83;25623;-68
2021/01/10 03:56:45;;;;;;;13.83;9.50;;;;;;;0.73;88.44;100478.61;1702670;83;25315;-68
2021/01/10 03:59:12;;;;;;;16.23;10.27;;;;;;;0.73;88.32;100476.02;1702681;83;25225;-68
2021/01/10 04:01:39;;;;;;;16.03;9.73;;;;;;;0.72;88.26;100484.70;1702700;83;25283;-68
2021/01/10 04:04:06;;;;;;;14.33;9.80;;;;;;;0.72;88.18;100475.64;1672995;85;25312;-68
2021/01/10 04:06:33;;;;;;;15.57;10.07;;;;;;;0.71;88.10;100480.39;1702665;83;25141;-68
2021/01/10 04:08:59;;;;;;;15.10;9.57;;;;;;;0.73;88.13;100479.06;1702680;83;25323;-68
2021/01/10 04:11:26;;;;;;;15.77;9.93;;;;;;;0.75;88.06;100477.28;1702663;83;25276;-68
2021/01/10 04:13:53;;;;;;;14.43;10.10;;;;;;;0.79;87.94;100476.34;1702573;83;25271;-68
2021/01/10 04:16:20;;;;;;;16.37;10.60;;;;;;;0.78;87.90;100477.67;1702676;83;25078;-68
2021/01/10 04:18:46;;;;;;;14.30;10.07;;;;;;;0.84;87.90;100476.21;1678569;85;25302;-68
2021/01/10 04:21:13;;;;;;;16.53;10.37;;;;;;;0.84;87.77;100478.80;1678532;84;25311;-68
2021/01/10 04:23:40;;;;;;;14.67;11.07;;;;;;;0.88;87.75;100479.16;1678494;85;25752;-68
2021/01/10 04:26:06;;;;;;;13.77;10.37;;;;;;;0.86;87.50;100477.89;1678484;85;25862;-68
2021/01/10 04:28:33;;;;;;;14.80;9.93;;;;;;;0.84;87.39;100477.50;1678453;84;25339;-68
2021/01/10 04:31:00;;;;;;;15.57;10.80;;;;;;;0.84;87.32;100480.09;1702692;83;25363;-69
2021/01/10 04:33:27;;;;;;;15.80;11.00;;;;;;;0.84;87.21;100483.98;1702661;83;25302;-68
2021/01/10 04:35:54;;;;;;;14.57;10.17;;;;;;;0.86;87.33;100483.52;1702684;83;25742;-68
2021/01/10 04:38:21;;;;;;;14.83;10.60;;;;;;;0.90;87.28;100485.14;1702793;83;25176;-67
2021/01/10 04:40:48;;;;;;;16.23;10.07;;;;;;;0.90;87.32;100488.57;1702664;83;25253;-68
2021/01/10 04:43:14;;;;;;;15.17;11.10;;;;;;;0.95;87.35;100494.10;1674703;85;25714;-68
2021/01/10 04:45:41;;;;;;;16.30;10.73;;;;;;;0.95;87.25;100494.95;1699637;84;25149;-69
2021/01/10 04:48:10;;;;;;;17.50;11.33;;;;;;;0.98;87.32;100496.17;1699664;84;25632;-69
2021/01/10 04:50:38;;;;;;;15.57;10.40;;;;;;;0.99;87.19;100490.53;1699625;84;25267;-68
2021/01/10 04:53:06;;;;;;;19.37;12.10;;;;;;;0.97;87.17;100490.57;1699632;84;25742;-69
2021/01/10 04:55:33;;;;;;;22.23;12.77;;;;;;;0.95;87.20;100488.47;1677558;84;25301;-68
2021/01/10 04:58:05;;;;;;;20.10;11.70;;;;;;;0.98;87.24;100492.28;1699670;84;25234;-68
2021/01/10 05:00:40;;;;;;;19.53;11.93;;;;;;;1.05;87.31;100474.85;1818205;78;26931;-67
2021/01/10 05:03:16;;;;;;;14.40;9.73;;;;;;;1.00;87.21;100473.66;1789574;79;25166;-67
2021/01/10 05:05:38;;;;;;;16.23;10.87;;;;;;;0.98;87.13;100479.78;1756152;80;25303;-67
2021/01/10 05:08:12;;;;;;;16.27;10.33;;;;;;;0.98;87.15;100483.22;1761221;81;25352;-67
2021/01/10 05:10:41;;;;;;;13.77;10.03;;;;;;;0.99;87.07;100484.06;1761242;81;25328;-67
2021/01/10 05:13:07;;;;;;;15.53;10.43;;;;;;;0.93;86.94;100487.20;1761269;81;25711;-67
2021/01/10 05:15:36;;;;;;;17.33;10.80;;;;;;;0.92;87.12;100491.13;1761211;81;25338;-67
2021/01/10 05:18:04;;;;;;;15.60;10.97;;;;;;;0.93;87.21;100494.14;1760784;80;25355;-67
2021/01/10 05:20:32;;;;;;;15.13;10.47;;;;;;;0.97;87.25;100502.23;1788791;80;25823;-67
2021/01/10 05:22:59;;;;;;;15.23;10.13;;;;;;;0.98;87.30;100500.05;1788850;79;25632;-67
2021/01/10 05:25:27;;;;;;;16.30;10.73;;;;;;;1.05;87.41;100504.19;1788881;80;25209;-67
2021/01/10 05:27:55;;;;;;;15.73;11.07;;;;;;;1.05;87.27;100501.60;1788934;79;25289;-67
2021/01/10 05:30:31;;;;;;;17.43;11.27;;;;;;;1.05;87.18;100500.76;1788886;79;25216;-68
2021/01/10 05:33:05;;;;;;;17.90;11.63;;;;;;;1.08;87.27;100500.69;1788884;80;25225;-67
2021/01/10 05:35:53;;;;;;;16.03;11.43;;;;;;;1.11;87.32;100500.16;1788993;79;25324;-67
2021/01/10 05:38:33;;;;;;;17.03;11.40;;;;;;;1.16;87.14;100503.07;1771188;80;25095;-67
2021/01/10 05:41:01;;;;;;;17.73;11.40;;;;;;;1.11;86.97;100507.94;1788955;80;25222;-67
2021/01/10 05:43:29;;;;;;;18.03;12.10;;;;;;;1.07;86.91;100506.33;1788853;80;25771;-69
2021/01/10 05:45:55;;;;;;;16.17;11.93;;;;;;;1.04;86.90;100510.70;1788819;79;25284;-67
2021/01/10 05:48:22;;;;;;;15.63;11.57;;;;;;;1.02;86.91;100512.06;1788926;79;25303;-67
2021/01/10 05:50:52;;;;;;;15.37;10.80;;;;;;;1.01;87.04;100518.13;1764990;80;25237;-67
2021/01/10 05:53:23;;;;;;;17.47;11.90;;;;;;;1.02;87.04;100512.06;1738992;82;25237;-67
2021/01/10 05:56:02;;;;;;;16.30;11.50;;;;;;;1.02;87.13;100524.14;1738937;82;25252;-67
2021/01/10 05:58:30;;;;;;;19.10;12.17;;;;;;;1.02;87.33;100522.85;1738921;82;25116;-67
2021/01/10 06:01:12;;;;;;;21.17;13.27;;;;;;;1.00;87.30;100519.45;1739013;82;25262;-67
2021/01/10 06:03:38;;;;;;;26.10;15.73;;;;;;;0.99;87.38;100521.20;1709692;83;25643;-67
2021/01/10 06:06:06;;;;;;;24.80;16.17;;;;;;;0.99;87.46;100518.61;1739047;82;25820;-67
2021/01/10 06:08:35;;;;;;;22.27;14.50;;;;;;;0.98;87.49;100518.19;1709541;82;25383;-67
2021/01/10 06:11:25;;;;;;;21.30;13.70;;;;;;;0.96;87.50;100517.38;1712565;82;25214;-68
2021/01/10 06:14:01;;;;;;;22.83;14.63;;;;;;;0.95;87.68;100520.84;1708942;82;25279;-67
2021/01/10 06:16:34;;;;;;;20.60;13.83;;;;;;;0.92;87.60;100531.28;1737983;82;25235;-68
2021/01/10 06:19:04;;;;;;;22.50;13.90;;;;;;;0.91;87.61;100523.95;1709152;82;25212;-68
2021/01/10 06:21:32;;;;;;;22.20;14.37;;;;;;;0.88;87.57;100532.25;1713160;82;25653;-69
2021/01/10 06:24:02;;;;;;;21.30;14.00;;;;;;;0.89;87.79;100524.45;1738300;82;25653;-68
2021/01/10 06:26:32;;;;;;;20.17;13.93;;;;;;;0.90;87.87;100526.58;1725679;83;25087;-66
2021/01/10 06:29:03;;;;;;;19.83;13.50;;;;;;;0.93;88.07;100521.34;1726082;82;25736;-67
2021/01/10 06:31:35;;;;;;;17.90;12.73;;;;;;;0.93;88.02;100526.06;1708752;82;25726;-67
2021/01/10 06:34:10;;;;;;;21.73;14.50;;;;;;;0.94;88.00;100536.00;1738489;82;25677;-67
2021/01/10 06:36:41;;;;;;;21.47;14.83;;;;;;;0.92;88.04;100528.69;1694433;84;25161;-67
2021/01/10 06:39:10;;;;;;;21.50;14.97;;;;;;;0.90;88.05;100527.88;1738378;82;25167;-67
2021/01/10 06:42:07;;;;;;;22.40;14.60;;;;;;;0.92;88.17;100533.45;1709083;82;25311;-68
2021/01/10 06:44:36;;;;;;;20.17;14.10;;;;;;;0.96;88.31;100532.92;1738487;82;25799;-68
2021/01/10 06:47:04;;;;;;;20.20;14.57;;;;;;;0.99;88.27;100530.69;1738534;82;25302;-68
2021/01/10 06:49:32;;;;;;;21.37;14.53;;;;;;;1.04;88.33;100532.30;1708880;82;25245;-67
2021/01/10 06:52:02;;;;;;;21.03;14.93;;;;;;;1.04;88.22;100537.48;1738442;82;25293;-68
2021/01/10 06:54:28;;;;;;;20.20;14.73;;;;;;;1.07;88.11;100543.89;1709026;82;25236;-67
2021/01/10 06:56:56;;;;;;;25.10;19.77;;;;;;;1.05;87.98;100540.47;1738629;82;25226;-68
2021/01/10 06:59:26;;;;;;;20.77;14.47;;;;;;;1.09;87.92;100543.86;1708976;82;25640;-69
2021/01/10 07:01:58;;;;;;;22.07;15.27;;;;;;;1.10;87.88;100541.20;1738452;82;25676;-67
2021/01/10 07:04:54;;;;;;;43.20;27.27;;;;;;;1.16;87.92;100545.41;1738492;82;25361;-68
2021/01/10 07:07:36;;;;;;;45.60;26.00;;;;;;;1.19;87.91;100548.35;1738468;82;25293;-67
2021/01/10 07:10:06;;;;;;;27.03;17.13;;;;;;;1.15;87.80;100541.10;1738553;82;25733;-67
2021/01/10 07:12:33;;;;;;;45.17;29.77;;;;;;;1.14;87.83;100540.72;1737328;82;25348;-67
2021/01/10 07:15:24;;;;;;;326.30;175.87;;;;;;;1.10;87.86;100550.27;1738291;82;25649;-68
2021/01/10 07:18:05;;;;;;;111.33;65.80;;;;;;;1.08;88.02;100552.05;1738558;82;25337;-67
2021/01/10 07:20:39;;;;;;;69.73;41.63;;;;;;;1.10;88.02;100557.20;1738591;82;25245;-67
2021/01/10 07:23:31;;;;;;;31.20;20.20;;;;;;;1.06;88.03;100545.22;1738424;82;25333;-67
2021/01/10 07:25:59;;;;;;;36.23;24.13;;;;;;;1.04;88.09;100549.14;1738580;82;25107;-68
2021/01/10 07:28:35;;;;;;;85.83;54.30;;;;;;;1.04;88.19;100550.86;1738300;82;25772;-67
2021/01/10 07:31:11;;;;;;;29.23;20.07;;;;;;;1.03;88.21;100557.80;1738086;82;25103;-67
2021/01/10 07:33:38;;;;;;;26.10;18.70;;;;;;;1.05;88.29;100556.46;1738385;82;25401;-67
2021/01/10 07:36:05;;;;;;;23.17;16.83;;;;;;;1.07;88.30;100558.14;1738476;82;25824;-67
2021/01/10 07:38:33;;;;;;;25.97;17.37;;;;;;;1.05;88.37;100559.89;1738546;82;25241;-67
2021/01/10 07:41:27;;;;;;;22.23;16.30;;;;;;;1.05;88.36;100556.46;1738394;82;25642;-67
2021/01/10 07:43:56;;;;;;;165.30;77.93;;;;;;;1.06;88.56;100558.18;1738481;82;25326;-67
2021/01/10 07:46:52;;;;;;;81.73;39.23;;;;;;;1.08;88.53;100563.72;1738464;82;25207;-68
2021/01/10 07:49:25;;;;;;;91.50;40.53;;;;;;;1.13;88.56;100564.91;1738513;82;25309;-67
2021/01/10 07:51:52;;;;;;;48.97;26.03;;;;;;;1.16;88.51;100566.56;1738182;82;25321;-67
2021/01/10 07:54:25;;;;;;;71.60;31.97;;;;;;;1.18;88.49;100560.92;1738434;82;25108;-67
2021/01/10 07:57:28;;;;;;;700.83;268.90;;;;;;;1.21;88.56;100560.85;1689849;82;25625;-67
2021/01/10 08:00:06;;;;;;;464.47;149.63;;;;;;;1.24;88.54;100561.63;1738395;82;25741;-67
2021/01/10 08:02:57;;;;;;;62.00;28.20;;;;;;;1.25;88.59;100565.90;1737902;82;25289;-68
2021/01/10 08:05:31;;;;;;;66.13;28.97;;;;;;;1.34;88.67;100563.98;1738429;82;25649;-67
2021/01/10 08:08:16;;;;;;;31.03;18.23;;;;;;;1.33;88.53;100563.59;1737644;82;25278;-67
2021/01/10 08:10:56;;;;;;;47.37;22.43;;;;;;;1.37;88.57;100567.80;1738510;82;25270;-66
2021/01/10 08:13:30;;;;;;;65.80;29.87;;;;;;;1.41;88.52;100570.28;1738060;82;25332;-67
2021/01/10 08:16:05;;;;;;;36.47;20.60;;;;;;;1.44;88.62;100576.69;1738473;82;25314;-67
2021/01/10 08:18:35;;;;;;;43.23;22.50;;;;;;;1.50;88.47;100581.31;1738323;82;25091;-67
2021/01/10 08:21:04;;;;;;;137.43;47.33;;;;;;;1.51;88.57;100573.92;1738382;82;25250;-67
2021/01/10 08:23:31;;;;;;;72.47;32.00;;;;;;;1.54;88.61;100587.66;1738364;82;25245;-67
2021/01/10 08:26:10;;;;;;;352.83;112.63;;;;;;;1.55;88.47;100582.89;1738414;82;25378;-67
2021/01/10 08:28:47;;;;;;;55.27;26.57;;;;;;;1.56;88.50;100586.33;1738464;82;25353;-68
2021/01/10 08:31:16;;;;;;;43.13;23.77;;;;;;;1.57;88.42;100582.41;1738388;82;25150;-69
2021/01/10 08:36:24;;;;;;;123.80;47.47;;;;;;;1.60;88.52;100585.38;1849730;76;26873;-68
2021/01/10 08:38:55;;;;;;;79.07;36.97;;;;;;;1.60;88.50;100591.41;1819849;77;25251;-69
2021/01/10 08:41:34;;;;;;;34.47;21.97;;;;;;;1.63;88.44;100589.20;1819798;78;25188;-70
2021/01/10 08:44:05;;;;;;;30.20;21.13;;;;;;;1.65;88.39;100597.78;1819674;77;25263;-69
2021/01/10 08:46:33;;;;;;;30.67;20.50;;;;;;;1.69;88.07;100598.55;1819592;77;25168;-70
2021/01/10 08:49:00;;;;;;;137.17;56.00;;;;;;;1.72;88.09;100591.54;1819802;78;25259;-69
2021/01/10 08:51:30;;;;;;;178.47;68.33;;;;;;;1.76;88.15;100593.61;1795619;77;25201;-68
2021/01/10 08:53:59;;;;;;;82.47;39.90;;;;;;;1.79;88.16;100589.22;1787474;79;25641;-70
2021/01/10 08:56:26;;;;;;;118.73;52.60;;;;;;;1.80;88.19;100593.50;1787352;79;25748;-69
2021/01/10 08:58:54;;;;;;;35.37;22.80;;;;;;;1.81;88.24;100590.02;1787529;79;25261;-70
2021/01/10 09:01:22;;;;;;;62.90;40.13;;;;;;;1.88;88.31;100591.14;1787614;80;25195;-68
2021/01/10 09:04:01;;;;;;;76.73;42.50;;;;;;;1.90;88.33;100588.08;1787573;79;25589;-68
2021/01/10 09:07:04;;;;;;;82.80;47.30;;;;;;;1.94;88.33;100595.72;1757715;80;25286;-69
2021/01/10 09:09:45;;;;;;;61.50;35.80;;;;;;;1.97;88.33;100593.05;1757490;80;25672;-69
2021/01/10 09:12:39;;;;;;;44.37;27.80;;;;;;;2.00;88.29;100592.97;1787518;79;25306;-69
2021/01/10 09:15:10;;;;;;;86.90;48.37;;;;;;;2.07;88.20;100594.95;1787492;79;25625;-69
2021/01/10 09:17:53;;;;;;;44.07;27.67;;;;;;;2.10;88.08;100597.47;1787462;80;25315;-69
2021/01/10 09:20:26;;;;;;;34.27;22.27;;;;;;;2.12;87.80;100598.28;1756708;80;25714;-68
2021/01/10 09:22:53;;;;;;;60.70;34.23;;;;;;;2.11;87.63;100600.91;1786246;80;25234;-68
2021/01/10 09:25:20;;;;;;;55.90;32.27;;;;;;;2.12;87.72;100603.47;1787511;79;25416;-69
2021/01/10 09:28:12;;;;;;;35.43;23.87;;;;;;;2.14;87.61;100600.38;1787504;80;25289;-68
2021/01/10 09:30:47;;;;;;;51.33;34.97;;;;;;;2.12;87.62;100599.58;1787381;79;25331;-69
2021/01/10 09:33:14;;;;;;;30.23;21.50;;;;;;;2.11;87.69;100601.78;1787126;80;25818;-68
2021/01/10 09:35:44;;;;;;;26.80;18.70;;;;;;;2.13;87.82;100607.78;1787316;79;25380;-68
2021/01/10 09:38:24;;;;;;;29.53;20.87;;;;;;;2.14;87.86;100601.67;1757015;79;25701;-68
2021/01/10 09:41:08;;;;;;;71.73;50.60;;;;;;;2.18;87.95;100606.36;1787590;79;25071;-68
2021/01/10 09:43:43;;;;;;;27.87;18.33;;;;;;;2.20;87.92;100604.57;1787492;79;25206;-68
2021/01/10 09:46:34;;;;;;;26.87;18.90;;;;;;;2.23;87.94;100603.19;1787372;79;25345;-68
2021/01/10 09:49:23;;;;;;;31.57;24.80;;;;;;;2.29;87.88;100603.45;1786977;80;25217;-67
2021/01/10 09:51:55;;;;;;;59.00;45.23;;;;;;;2.36;87.81;100602.38;1781735;78;25704;-68
2021/01/10 09:54:28;;;;;;;40.37;30.60;;;;;;;2.36;87.82;100607.15;1786977;80;25688;-68
2021/01/10 09:57:00;;;;;;;27.07;19.10;;;;;;;2.42;87.73;100604.82;1787034;79;25581;-68
2021/01/10 09:59:43;;;;;;;28.10;19.70;;;;;;;2.43;87.57;100597.45;1786958;79;25217;-71
2021/01/10 10:02:26;;;;;;;26.63;18.03;;;;;;;2.42;87.53;100608.72;1786968;80;25261;-68
2021/01/10 10:04:54;;;;;;;30.37;21.50;;;;;;;2.41;87.60;100599.20;1783705;79;25257;-69
2021/01/10 10:07:37;;;;;;;26.27;17.20;;;;;;;2.38;87.64;100599.29;1786829;79;25194;-68
2021/01/10 10:10:10;;;;;;;21.93;16.33;;;;;;;2.45;87.70;100595.65;1786940;80;25194;-68
2021/01/10 10:12:37;;;;;;;23.27;16.90;;;;;;;2.48;87.49;100599.46;1783690;80;25325;-67
2021/01/10 10:15:08;;;;;;;19.30;14.73;;;;;;;2.53;87.29;100595.41;1786835;79;25210;-68
2021/01/10 10:17:36;;;;;;;22.10;16.87;;;;;;;2.56;87.21;100592.73;1786897;80;25202;-68
2021/01/10 10:20:08;;;;;;;20.30;14.53;;;;;;;2.60;86.83;100593.91;1786968;80;25217;-68
2021/01/10 10:22:36;;;;;;;23.53;16.47;;;;;;;2.55;86.61;100587.99;1786996;79;25328;-69
2021/01/10 10:25:06;;;;;;;21.93;15.30;;;;;;;2.55;86.78;100585.39;1786813;79;25218;-69
2021/01/10 10:27:33;;;;;;;21.57;14.50;;;;;;;2.59;86.77;100588.29;1786864;79;25674;-69
2021/01/10 10:30:00;;;;;;;22.10;15.70;;;;;;;2.58;86.75;100589.20;1786905;79;25222;-68
2021/01/10 10:32:27;;;;;;;25.83;16.77;;;;;;;2.57;86.63;100588.79;1786844;80;25364;-68
2021/01/10 10:34:54;;;;;;;25.40;16.60;;;;;;;2.55;86.66;100581.50;1786858;79;25260;-69
2021/01/10 10:37:21;;;;;;;24.67;17.60;;;;;;;2.54;86.72;100584.14;1787010;80;25201;-70
2021/01/10 10:39:48;;;;;;;24.07;17.40;;;;;;;2.58;86.80;100584.02;1786933;79;25692;-68
2021/01/10 10:42:17;;;;;;;20.03;14.50;;;;;;;2.62;86.85;100581.33;1756422;80;25289;-67
2021/01/10 10:44:44;;;;;;;19.27;13.77;;;;;;;2.67;86.44;100582.05;1786810;80;25278;-68
2021/01/10 10:47:14;;;;;;;20.30;14.00;;;;;;;2.60;86.15;100580.91;1786833;80;25174;-68
2021/01/10 10:49:42;;;;;;;21.73;14.73;;;;;;;2.63;85.67;100584.31;1786972;79;25194;-68
2021/01/10 10:52:13;;;;;;;19.87;14.47;;;;;;;2.56;85.79;100576.72;1786830;79;25269;-68
2021/01/10 10:54:40;;;;;;;23.87;15.37;;;;;;;2.54;85.88;100573.75;1786968;80;25281;-68
2021/01/10 10:57:09;;;;;;;23.83;16.30;;;;;;;2.56;86.07;100577.15;1787088;79;25228;-69
2021/01/10 10:59:39;;;;;;;17.30;12.17;;;;;;;2.57;86.15;100578.41;1786948;80;25206;-67
2021/01/10 11:02:12;;;;;;;13.37;9.77;;;;;;;2.60;85.93;100577.02;1756416;80;25257;-68
2021/01/10 11:07:17;;;;;;;12.90;9.37;;;;;;;2.52;85.77;100571.20;1818376;78;26678;-68
2021/01/10 11:09:47;;;;;;;13.97;10.43;;;;;;;2.42;85.54;100567.17;1789478;80;25759;-68
2021/01/10 11:12:14;;;;;;;11.83;8.63;;;;;;;2.36;85.77;100568.63;1789429;79;25756;-68
2021/01/10 11:14:41;;;;;;;12.27;8.97;;;;;;;2.35;85.66;100565.66;1789516;80;25297;-68
2021/01/10 11:17:10;;;;;;;11.90;8.80;;;;;;;2.27;85.61;100569.75;1789556;80;25332;-68
2021/01/10 11:19:38;;;;;;;12.57;8.73;;;;;;;2.29;85.79;100560.17;1757690;80;25224;-68
2021/01/10 11:22:05;;;;;;;15.07;10.37;;;;;;;2.23;85.87;100563.80;1761279;81;25196;-68
2021/01/10 11:24:34;;;;;;;21.40;13.87;;;;;;;2.18;86.21;100557.89;1761167;81;25736;-68
2021/01/10 11:27:01;;;;;;;20.93;14.60;;;;;;;2.19;86.48;100555.67;1761067;81;25243;-68
2021/01/10 11:29:27;;;;;;;30.10;20.83;;;;;;;2.23;86.45;100557.31;1761203;81;25636;-68
2021/01/10 11:31:54;;;;;;;20.03;14.37;;;;;;;2.22;86.55;100554.75;1761283;81;25247;-69
2021/01/10 11:34:21;;;;;;;17.30;12.67;;;;;;;2.15;86.59;100558.42;1761252;81;25343;-67
2021/01/10 11:36:50;;;;;;;17.13;10.93;;;;;;;2.17;86.85;100551.44;1761207;81;25738;-67
2021/01/10 11:39:19;;;;;;;15.33;10.20;;;;;;;2.13;86.69;100555.87;1761124;81;25522;-68
2021/01/10 11:41:53;;;;;;;16.30;10.70;;;;;;;2.09;86.68;100558.59;1761130;81;25714;-68